Airfield :
LOGIN :

Register | Disclaimer

   EN    FR    IT 

 










Legend :    VFR   Marginal VFR   IFR   Intensive IFR   Very Intensive IFR
Visi :
Ceiling :
>= 8 km
>= 3000ft
5 to 8 km
1000 to 3000 ft
1500m to 5 km
500 to 1000 ft
800 to 1500m
200 to 500 ft
< 800m
< 200 ft
Symbols :   Thunderstorms  Fog  Heavy snow  Heavy precipitations  Wind > 20 kt
SIGMETs :     Misc.  Thunderstorms  Icing  Turbulence  Mountain Waves  Volcanic Ashes







- Airport Elevation : 26 ft
- IATA code : BIA
- Download approach charts


LFKB - Bastia

CURRENT METAR :
  • 262130Z 24004KT 9999 SCT073 16/11 Q1020 NOSIG

EXPIRED METARs :
  • 262100Z 23004KT 9999 SCT073 16/11 Q1020 NOSIG
  • 262030Z 23004KT CAVOK 16/11 Q1020 NOSIG
  • 262000Z 23003KT CAVOK 16/12 Q1020 NOSIG
  • 261930Z 24003KT CAVOK 16/12 Q1020 NOSIG
  • 261900Z 24003KT CAVOK 17/12 Q1020 NOSIG

TAF TAF LFKB
Valid from the 26 at 21:00 until the 27 at 21:00 UTC


262000Z 2621/2721 24004KT CAVOK
BECMG 2707/2709 06008KT TX24/2712Z TN15/2703Z
ATIS : +33 4 95 59 19 40
No reported NOTAMs for that airfield.



MET'MAP, your aeronautical weather chart ! - Copyright ORBIFLY December 2007 - Disclaimer

ORBIFLY MET'MAP TEAM :

Programming & Development : Alexandra Zaïnal
Concept & Development : Baudouin d'Aumeries
Co-Development & Prog : Marc-Olivier Méhu
Technical & hardware support : Manuel Goepfert

Contact : metmap@orbifly.com




SOURCES & CREDITS :

   NOAA